createdAt,value
2019-02-17T00:03:38.427Z,99.90
2019-02-17T00:08:39.530Z,99.90
2019-02-17T00:13:40.623Z,99.90
2019-02-17T00:18:41.758Z,99.90
2019-02-17T00:23:42.843Z,99.90
2019-02-17T00:28:44.176Z,99.90
2019-02-17T00:33:46.146Z,99.90
2019-02-17T00:38:47.258Z,99.90
2019-02-17T00:43:48.372Z,99.90
2019-02-17T00:48:49.492Z,99.90
2019-02-17T00:53:50.707Z,99.90
2019-02-17T00:58:51.811Z,99.90
2019-02-17T01:03:52.903Z,99.90
2019-02-17T01:08:54.008Z,99.90
2019-02-17T01:13:55.099Z,99.90
2019-02-17T01:18:56.243Z,99.90
2019-02-17T01:23:57.335Z,99.90
2019-02-17T01:28:58.440Z,99.90
2019-02-17T01:34:08.355Z,99.90
2019-02-17T01:39:09.480Z,99.90
2019-02-17T01:44:10.595Z,99.90
2019-02-17T01:49:11.704Z,99.90
2019-02-17T01:54:12.836Z,99.90
2019-02-17T01:59:13.933Z,99.90
2019-02-17T02:04:15.140Z,99.90
2019-02-17T02:09:16.237Z,99.90
2019-02-17T02:14:17.344Z,99.90
2019-02-17T02:19:18.471Z,99.90
2019-02-17T02:24:19.561Z,99.90
2019-02-17T02:29:20.670Z,99.90
2019-02-17T02:34:21.759Z,99.90
2019-02-17T02:39:22.859Z,99.90
2019-02-17T02:44:23.977Z,99.90
2019-02-17T02:49:25.074Z,99.90
2019-02-17T02:54:26.259Z,99.90
2019-02-17T02:59:27.355Z,99.90
2019-02-17T03:04:28.498Z,99.90
2019-02-17T03:09:29.620Z,99.90
2019-02-17T03:14:30.924Z,99.90
2019-02-17T03:19:32.039Z,99.90
2019-02-17T03:24:33.136Z,99.90
2019-02-17T03:29:34.242Z,99.90
2019-02-17T03:34:35.352Z,99.90
2019-02-17T03:39:36.459Z,99.90
2019-02-17T03:44:37.564Z,99.90
2019-02-17T03:49:38.674Z,99.90
2019-02-17T03:54:39.764Z,99.90
2019-02-17T03:59:40.862Z,99.90
2019-02-17T04:04:41.946Z,99.90
2019-02-17T04:09:43.039Z,99.90
2019-02-17T04:14:44.150Z,99.90
2019-02-17T04:19:45.252Z,99.90
2019-02-17T04:24:46.339Z,99.90
2019-02-17T04:29:47.461Z,99.90
2019-02-17T04:34:48.544Z,99.90
2019-02-17T04:39:49.668Z,99.90
2019-02-17T04:44:50.907Z,99.90
2019-02-17T04:49:52.100Z,99.90
2019-02-17T04:54:53.411Z,99.90
2019-02-17T04:59:54.483Z,99.90
2019-02-17T05:04:55.591Z,99.90
2019-02-17T05:09:56.668Z,99.90
2019-02-17T05:14:57.755Z,99.90
2019-02-17T05:19:58.866Z,99.90
2019-02-17T05:24:59.962Z,99.90
2019-02-17T05:30:01.162Z,99.90
2019-02-17T05:35:03.657Z,99.90
2019-02-17T05:40:05.609Z,99.90
2019-02-17T05:45:07.790Z,99.90
2019-02-17T05:50:08.976Z,99.90
2019-02-17T05:55:10.075Z,99.90
2019-02-17T06:00:12.568Z,99.90
2019-02-17T06:05:13.660Z,99.90
2019-02-17T06:10:14.750Z,99.90
2019-02-17T06:15:15.864Z,99.90
2019-02-17T06:20:16.963Z,99.90
2019-02-17T06:25:18.073Z,99.90
2019-02-17T06:30:19.190Z,99.90
2019-02-17T06:35:20.287Z,99.90
2019-02-17T06:40:21.380Z,99.90
2019-02-17T06:45:22.625Z,99.90
2019-02-17T06:50:23.828Z,99.90
2019-02-17T06:55:29.596Z,99.90
2019-02-17T07:00:35.515Z,99.90
2019-02-17T07:05:38.596Z,99.90
2019-02-17T07:10:39.675Z,99.90
2019-02-17T07:15:40.788Z,99.90
2019-02-17T07:20:41.996Z,99.90
2019-02-17T07:25:43.088Z,99.90
2019-02-17T07:30:44.183Z,99.90
2019-02-17T07:35:45.275Z,99.90
2019-02-17T07:40:46.496Z,99.90
2019-02-17T07:45:47.623Z,99.90
2019-02-17T07:50:48.703Z,99.90
2019-02-17T07:55:49.912Z,99.90
2019-02-17T08:00:51.026Z,99.90
2019-02-17T08:05:52.213Z,99.90
2019-02-17T08:11:03.471Z,99.90
2019-02-17T08:15:56.354Z,99.90
2019-02-17T08:20:57.464Z,99.90
2019-02-17T08:25:58.559Z,99.90
2019-02-17T08:30:59.656Z,99.90
2019-02-17T08:36:00.770Z,79.90
2019-02-17T08:41:01.900Z,63.90
2019-02-17T08:46:03.134Z,56.30
2019-02-17T08:51:04.235Z,51.00
2019-02-17T08:56:05.340Z,47.30
2019-02-17T09:01:06.447Z,45.10
2019-02-17T09:06:07.548Z,44.10
2019-02-17T09:11:08.685Z,43.50
2019-02-17T09:16:09.814Z,46.50
2019-02-17T09:26:29.741Z,45.90
2019-02-17T09:31:31.018Z,46.60
2019-02-17T09:36:32.138Z,47.90
2019-02-17T09:41:33.238Z,48.40
2019-02-17T09:46:34.535Z,45.60
2019-02-17T09:51:35.647Z,44.00
2019-02-17T09:56:36.775Z,42.20
2019-02-17T10:01:37.884Z,42.80
2019-02-17T10:06:38.993Z,38.90
2019-02-17T10:11:40.408Z,38.80
2019-02-17T10:16:41.558Z,37.80
2019-02-17T10:21:42.673Z,36.30
2019-02-17T10:26:43.813Z,37.60
2019-02-17T10:31:44.941Z,35.80
2019-02-17T10:36:46.128Z,33.60
2019-02-17T10:41:47.347Z,33.00
2019-02-17T10:46:48.622Z,33.30
2019-02-17T10:51:49.869Z,33.00
2019-02-17T10:56:51.167Z,33.80
2019-02-17T11:01:52.272Z,31.20
2019-02-17T11:06:53.379Z,32.50
2019-02-17T11:11:54.473Z,32.10
2019-02-17T11:16:55.638Z,33.40
2019-02-17T11:21:56.749Z,34.20
2019-02-17T11:26:57.887Z,33.00
2019-02-17T11:31:59.011Z,35.50
2019-02-17T11:37:00.212Z,33.60
2019-02-17T11:42:01.428Z,32.90
2019-02-17T11:47:02.659Z,33.70
2019-02-17T11:52:03.862Z,33.30
2019-02-17T11:57:05.883Z,31.90
2019-02-17T12:02:07.020Z,30.10
2019-02-17T12:07:08.117Z,29.90
2019-02-17T12:12:09.326Z,30.20
2019-02-17T12:17:10.572Z,29.90
2019-02-17T12:22:13.871Z,28.20
2019-02-17T12:27:19.954Z,27.60
2019-02-17T12:32:23.022Z,25.60
2019-02-17T12:37:24.192Z,25.30
2019-02-17T12:42:25.311Z,26.00
2019-02-17T12:47:26.476Z,25.20
2019-02-17T12:52:27.785Z,23.70
2019-02-17T12:57:28.892Z,23.30
2019-02-17T13:02:30.017Z,23.10
2019-02-17T13:07:31.148Z,22.30
2019-02-17T13:12:32.276Z,20.80
2019-02-17T13:17:33.420Z,21.00
2019-02-17T13:22:34.520Z,20.80
2019-02-17T13:27:35.637Z,18.70
2019-02-17T13:32:36.748Z,19.30
2019-02-17T13:37:37.900Z,17.90
2019-02-17T13:42:38.984Z,17.30
2019-02-17T13:47:40.307Z,17.40
2019-02-17T13:52:41.614Z,17.00
2019-02-17T13:57:42.720Z,16.90
2019-02-17T14:02:43.841Z,15.50
2019-02-17T14:07:44.943Z,16.80
2019-02-17T14:12:46.160Z,16.00
2019-02-17T14:17:47.402Z,15.90
2019-02-17T14:22:48.532Z,15.20
2019-02-17T14:27:49.796Z,15.40
2019-02-17T14:32:50.916Z,16.00
2019-02-17T14:37:52.069Z,14.70
2019-02-17T14:42:55.350Z,13.90
2019-02-17T14:47:56.280Z,13.10
2019-02-17T14:52:57.375Z,13.40
2019-02-17T14:58:04.974Z,13.50
2019-02-17T15:03:01.517Z,11.20
2019-02-17T15:08:02.725Z,14.00
2019-02-17T15:13:03.862Z,14.70
2019-02-17T15:18:04.986Z,13.10
2019-02-17T15:23:06.088Z,13.50
2019-02-17T15:28:07.220Z,13.40
2019-02-17T15:33:08.365Z,13.00
2019-02-17T15:38:09.482Z,13.40
2019-02-17T15:43:10.610Z,14.80
2019-02-17T15:48:11.720Z,16.60
2019-02-17T15:53:12.845Z,16.60
2019-02-17T15:58:14.029Z,18.10
2019-02-17T16:03:15.153Z,18.00
2019-02-17T16:08:16.249Z,20.70
2019-02-17T16:13:17.529Z,23.30
2019-02-17T16:18:18.659Z,24.60
2019-02-17T16:23:19.768Z,28.80
2019-02-17T16:28:20.905Z,33.60
2019-02-17T16:33:22.049Z,37.50
2019-02-17T16:38:23.292Z,41.20
2019-02-17T16:43:24.438Z,44.40
2019-02-17T16:48:25.638Z,47.00
2019-02-17T16:53:26.770Z,49.40
2019-02-17T16:58:28.015Z,51.50
2019-02-17T17:03:29.335Z,54.20
2019-02-17T17:08:30.539Z,52.80
2019-02-17T17:13:31.683Z,53.40
2019-02-17T17:18:33.560Z,55.30
2019-02-17T17:23:34.725Z,55.80
2019-02-17T17:28:36.077Z,57.70
2019-02-17T17:33:37.266Z,60.20
2019-02-17T17:38:38.407Z,65.30
2019-02-17T17:43:39.663Z,73.20
2019-02-17T17:48:40.880Z,78.50
2019-02-17T17:53:42.108Z,86.50
2019-02-17T17:58:43.452Z,92.60
2019-02-17T18:03:44.590Z,93.60
2019-02-17T18:08:45.808Z,96.00
2019-02-17T18:13:46.909Z,96.60
2019-02-17T18:18:48.084Z,96.60
2019-02-17T18:23:49.195Z,95.20
2019-02-17T18:28:50.526Z,94.10
2019-02-17T18:33:51.674Z,94.20
2019-02-17T18:38:52.836Z,93.20
2019-02-17T18:43:54.180Z,92.70
2019-02-17T18:48:55.666Z,92.70
2019-02-17T18:53:56.969Z,89.90
2019-02-17T18:58:58.200Z,83.20
2019-02-17T19:03:59.461Z,72.90
2019-02-17T19:09:02.556Z,62.60
2019-02-17T19:14:03.880Z,57.70
2019-02-17T19:19:05.025Z,54.20
2019-02-17T19:24:06.157Z,53.80
2019-02-17T19:29:11.528Z,49.40
2019-02-17T19:34:10.366Z,48.90
2019-02-17T19:39:11.572Z,48.50
2019-02-17T19:44:12.801Z,48.10
2019-02-17T19:49:13.941Z,49.30
2019-02-17T19:54:15.183Z,49.90
2019-02-17T19:59:16.420Z,50.80
2019-02-17T20:04:25.534Z,50.60
2019-02-17T20:09:26.739Z,51.60
2019-02-17T20:14:27.965Z,52.10
2019-02-17T20:19:29.116Z,52.50
2019-02-17T20:24:30.247Z,53.00
2019-02-17T20:29:31.489Z,53.90
2019-02-17T20:34:32.573Z,55.50
2019-02-17T20:39:33.821Z,56.70
2019-02-17T20:44:35.047Z,59.00
2019-02-17T20:49:36.156Z,60.60
2019-02-17T20:54:37.272Z,63.10
2019-02-17T20:59:38.419Z,65.00
2019-02-17T21:04:39.635Z,65.60
2019-02-17T21:09:40.742Z,66.40
2019-02-17T21:14:41.956Z,67.00
2019-02-17T21:19:43.182Z,68.00
2019-02-17T21:24:44.355Z,69.90
2019-02-17T21:29:45.634Z,70.00
2019-02-17T21:34:46.765Z,73.10
2019-02-17T21:39:47.878Z,77.30
2019-02-17T21:44:48.992Z,86.10
2019-02-17T21:49:50.133Z,88.80
2019-02-17T21:54:51.338Z,95.00
2019-02-17T21:59:52.456Z,99.90
2019-02-17T22:04:53.580Z,99.90
2019-02-17T22:09:54.673Z,99.90
2019-02-17T22:14:55.820Z,99.90
2019-02-17T22:19:56.943Z,99.90
2019-02-17T22:24:58.030Z,99.90
2019-02-17T22:29:59.127Z,99.90
2019-02-17T22:35:00.363Z,99.90
2019-02-17T22:40:02.141Z,99.90
2019-02-17T22:45:06.353Z,99.90
2019-02-17T22:50:14.343Z,99.90
2019-02-17T22:55:15.534Z,99.90
2019-02-17T23:00:39.710Z,99.90
2019-02-17T23:05:41.023Z,99.90
2019-02-17T23:10:42.127Z,99.90
2019-02-17T23:15:43.250Z,99.90
2019-02-17T23:20:44.474Z,99.90
2019-02-17T23:25:45.579Z,99.90
2019-02-17T23:30:46.689Z,99.90
2019-02-17T23:35:47.786Z,99.90
2019-02-17T23:40:48.881Z,99.90
2019-02-17T23:45:50.006Z,99.90
2019-02-17T23:50:51.118Z,99.90
2019-02-17T23:55:52.227Z,99.90
